createdAt,value
2022-12-11T00:00:50.428Z,0.80
2022-12-11T00:03:18.297Z,0.80
2022-12-11T00:05:46.151Z,0.63
2022-12-11T00:08:14.340Z,0.80
2022-12-11T00:10:48.257Z,1.20
2022-12-11T00:13:15.587Z,1.20
2022-12-11T00:15:42.854Z,1.00
2022-12-11T00:18:13.026Z,0.77
2022-12-11T00:20:40.249Z,1.00
2022-12-11T00:23:07.497Z,1.00
2022-12-11T00:25:34.749Z,0.90
2022-12-11T00:28:02.041Z,0.90
2022-12-11T00:30:29.327Z,0.80
2022-12-11T00:32:56.567Z,0.95
2022-12-11T00:35:23.776Z,0.90
2022-12-11T00:37:51.003Z,0.55
2022-12-11T00:40:18.285Z,0.70
2022-12-11T00:42:45.527Z,0.70
2022-12-11T00:45:12.953Z,1.00
2022-12-11T00:47:40.344Z,1.10
2022-12-11T00:50:07.862Z,1.10
2022-12-11T00:52:35.132Z,0.73
2022-12-11T00:55:02.397Z,1.40
2022-12-11T00:57:29.655Z,1.25
2022-12-11T00:59:56.926Z,0.90
2022-12-11T01:02:24.223Z,0.90
2022-12-11T01:04:51.571Z,0.90
2022-12-11T01:07:18.945Z,1.05
2022-12-11T01:10:04.943Z,1.00
2022-12-11T01:12:32.177Z,0.90
2022-12-11T01:14:59.486Z,0.60
2022-12-11T01:17:26.738Z,1.00
2022-12-11T01:19:57.124Z,0.80
2022-12-11T01:22:24.322Z,0.85
2022-12-11T01:24:51.661Z,0.65
2022-12-11T01:27:18.914Z,0.68
2022-12-11T01:29:46.182Z,0.85
2022-12-11T01:32:13.417Z,0.70
2022-12-11T01:34:40.639Z,0.70
2022-12-11T01:37:07.926Z,1.23
2022-12-11T01:39:35.192Z,1.45
2022-12-11T01:42:02.567Z,1.00
2022-12-11T01:44:29.784Z,0.80
2022-12-11T01:46:57.030Z,1.50
2022-12-11T01:49:26.413Z,1.10
2022-12-11T01:51:59.605Z,0.80
2022-12-11T01:54:28.430Z,1.05
2022-12-11T01:56:56.873Z,0.57
2022-12-11T01:59:25.477Z,0.80
2022-12-11T02:02:04.306Z,0.47
2022-12-11T02:04:32.703Z,0.70
2022-12-11T02:06:59.965Z,0.60
2022-12-11T02:09:33.154Z,0.60
2022-12-11T02:12:07.605Z,0.50
2022-12-11T02:14:41.117Z,0.50
2022-12-11T02:17:17.643Z,0.63
2022-12-11T02:19:45.433Z,0.57
2022-12-11T02:22:16.929Z,0.80
2022-12-11T02:24:59.330Z,0.90
2022-12-11T02:27:32.819Z,0.70
2022-12-11T02:30:08.799Z,0.60
2022-12-11T02:32:44.681Z,0.80
2022-12-11T02:35:14.671Z,0.80
2022-12-11T02:37:44.496Z,0.57
2022-12-11T02:40:13.431Z,0.90
2022-12-11T02:42:42.649Z,0.73
2022-12-11T02:45:11.126Z,0.70
2022-12-11T02:47:38.762Z,1.80
2022-12-11T02:50:09.969Z,0.60
2022-12-11T02:52:38.449Z,0.70
2022-12-11T02:55:08.105Z,0.60
2022-12-11T02:58:13.966Z,0.50
2022-12-11T03:00:41.339Z,0.40
2022-12-11T03:03:08.813Z,0.65
2022-12-11T03:05:36.178Z,0.50
2022-12-11T03:08:03.707Z,0.70
2022-12-11T03:10:31.086Z,0.63
2022-12-11T03:12:59.314Z,0.60
2022-12-11T03:15:39.031Z,0.63
2022-12-11T03:18:09.879Z,0.60
2022-12-11T03:20:39.921Z,0.35
2022-12-11T03:23:07.149Z,0.80
2022-12-11T03:25:44.140Z,0.55
2022-12-11T03:28:14.054Z,0.60
2022-12-11T03:30:41.774Z,0.90
2022-12-11T03:33:14.516Z,0.95
2022-12-11T03:36:11.157Z,0.60
2022-12-11T03:38:42.792Z,0.77
2022-12-11T03:41:11.022Z,0.55
2022-12-11T03:43:39.085Z,0.60
2022-12-11T03:46:06.695Z,0.60
2022-12-11T03:48:36.302Z,0.50
2022-12-11T03:51:06.139Z,0.70
2022-12-11T03:53:35.077Z,0.70
2022-12-11T03:56:03.592Z,0.50
2022-12-11T03:58:30.893Z,0.60
2022-12-11T04:00:58.128Z,0.50
2022-12-11T04:03:25.456Z,0.57
2022-12-11T04:05:53.821Z,0.70
2022-12-11T04:08:21.465Z,1.00
2022-12-11T04:10:48.912Z,0.70
2022-12-11T04:13:16.149Z,0.60
2022-12-11T04:15:43.520Z,0.60
2022-12-11T04:18:29.770Z,0.55
2022-12-11T04:21:16.214Z,0.40
2022-12-11T04:24:02.463Z,0.65
2022-12-11T04:26:29.801Z,0.60
2022-12-11T04:28:57.029Z,0.80
2022-12-11T04:31:24.412Z,0.50
2022-12-11T04:33:51.849Z,0.40
2022-12-11T04:36:19.192Z,0.60
2022-12-11T04:38:46.419Z,0.65
2022-12-11T04:41:15.032Z,0.65
2022-12-11T04:43:45.083Z,0.50
2022-12-11T04:46:17.227Z,0.45
2022-12-11T04:48:44.762Z,0.52
2022-12-11T04:51:13.189Z,0.40
2022-12-11T04:53:40.457Z,0.45
2022-12-11T04:56:11.718Z,0.60
2022-12-11T04:58:39.522Z,0.40
2022-12-11T05:01:11.073Z,0.47
2022-12-11T05:03:38.452Z,0.60
2022-12-11T05:06:05.855Z,0.43
2022-12-11T05:08:34.843Z,0.50
2022-12-11T05:11:06.777Z,0.57
2022-12-11T05:13:34.036Z,0.47
2022-12-11T05:16:01.393Z,0.50
2022-12-11T05:18:28.704Z,0.60
2022-12-11T05:20:56.973Z,0.52
2022-12-11T05:23:24.420Z,0.40
2022-12-11T05:25:58.969Z,0.50
2022-12-11T05:28:27.027Z,0.35
2022-12-11T05:31:01.081Z,0.38
2022-12-11T05:33:28.795Z,0.50
2022-12-11T05:35:56.222Z,0.50
2022-12-11T05:38:23.505Z,0.50
2022-12-11T05:40:58.031Z,0.30
2022-12-11T05:43:25.424Z,0.47
2022-12-11T05:45:52.672Z,0.43
2022-12-11T05:48:19.920Z,0.40
2022-12-11T05:50:56.851Z,0.43
2022-12-11T05:53:24.352Z,0.40
2022-12-11T05:55:52.257Z,0.60
2022-12-11T05:58:19.690Z,0.57
2022-12-11T06:00:47.421Z,0.55
2022-12-11T06:03:14.959Z,0.47
2022-12-11T06:05:43.088Z,0.40
2022-12-11T06:08:11.574Z,0.63
2022-12-11T06:10:38.907Z,0.55
2022-12-11T06:13:06.300Z,0.80
2022-12-11T06:15:33.538Z,0.63
2022-12-11T06:18:00.754Z,0.60
2022-12-11T06:20:28.003Z,0.70
2022-12-11T06:22:55.335Z,0.70
2022-12-11T06:25:22.593Z,0.70
2022-12-11T06:27:50.829Z,0.68
2022-12-11T06:30:18.103Z,0.73
2022-12-11T06:32:45.624Z,0.90
2022-12-11T06:35:13.831Z,1.02
2022-12-11T06:37:41.504Z,0.90
2022-12-11T06:40:09.724Z,0.75
2022-12-11T06:42:37.051Z,0.90
2022-12-11T06:45:04.692Z,1.08
2022-12-11T06:47:32.361Z,0.90
2022-12-11T06:49:59.876Z,1.30
2022-12-11T06:52:30.549Z,1.45
2022-12-11T06:54:58.115Z,1.92
2022-12-11T06:57:25.414Z,1.60
2022-12-11T06:59:52.687Z,1.77
2022-12-11T07:02:20.571Z,1.10
2022-12-11T07:04:53.343Z,1.70
2022-12-11T07:07:22.329Z,1.33
2022-12-11T07:09:49.621Z,1.38
2022-12-11T07:12:17.887Z,1.35
2022-12-11T07:14:45.626Z,2.03
2022-12-11T07:17:12.857Z,1.60
2022-12-11T07:19:40.801Z,1.17
2022-12-11T07:22:08.049Z,1.50
2022-12-11T07:24:35.365Z,1.73
2022-12-11T07:27:03.773Z,1.40
2022-12-11T07:29:31.095Z,1.50
2022-12-11T07:31:58.473Z,2.03
2022-12-11T07:34:25.916Z,2.38
2022-12-11T07:36:53.218Z,2.25
2022-12-11T07:39:20.527Z,1.10
2022-12-11T07:41:47.849Z,1.85
2022-12-11T07:44:15.084Z,1.27
2022-12-11T07:46:42.611Z,1.83
2022-12-11T07:49:09.901Z,1.77
2022-12-11T07:51:37.944Z,2.25
2022-12-11T07:54:06.619Z,1.95
2022-12-11T07:56:34.061Z,3.55
2022-12-11T07:59:02.130Z,3.53
2022-12-11T08:01:30.431Z,3.45
2022-12-11T08:03:58.110Z,4.07
2022-12-11T08:06:26.943Z,2.80
2022-12-11T08:08:54.823Z,2.55
2022-12-11T08:11:22.118Z,3.25
2022-12-11T08:13:49.480Z,2.15
2022-12-11T08:16:17.617Z,2.35
2022-12-11T08:18:46.133Z,2.67
2022-12-11T08:21:15.262Z,2.17
2022-12-11T08:23:42.888Z,2.88
2022-12-11T08:26:11.721Z,2.25
2022-12-11T08:28:39.066Z,2.25
2022-12-11T08:31:07.244Z,2.35
2022-12-11T08:33:34.669Z,2.17
2022-12-11T08:36:08.780Z,2.70
2022-12-11T08:38:37.240Z,2.70
2022-12-11T08:41:15.030Z,2.75
2022-12-11T08:43:42.595Z,2.17
2022-12-11T08:46:10.190Z,2.30
2022-12-11T08:48:40.873Z,3.10
2022-12-11T08:51:09.360Z,2.50
2022-12-11T08:53:36.625Z,2.60
2022-12-11T08:56:08.349Z,2.72
2022-12-11T08:58:35.880Z,2.80
2022-12-11T09:01:10.375Z,2.58
2022-12-11T09:03:38.361Z,2.13
2022-12-11T09:06:06.917Z,1.92
2022-12-11T09:08:34.636Z,1.50
2022-12-11T09:11:09.051Z,1.88
2022-12-11T09:13:36.500Z,1.45
2022-12-11T09:16:11.201Z,1.45
2022-12-11T09:18:38.769Z,1.40
2022-12-11T09:21:07.234Z,1.08
2022-12-11T09:23:34.835Z,1.58
2022-12-11T09:26:05.506Z,1.23
2022-12-11T09:28:33.028Z,1.70
2022-12-11T09:31:00.336Z,1.95
2022-12-11T09:33:27.683Z,2.20
2022-12-11T09:35:58.911Z,2.10
2022-12-11T09:38:26.264Z,2.42
2022-12-11T09:40:53.768Z,2.85
2022-12-11T09:43:30.808Z,2.50
2022-12-11T09:45:58.328Z,2.58
2022-12-11T09:48:26.990Z,3.42
2022-12-11T09:50:55.169Z,3.08
2022-12-11T09:53:34.439Z,3.75
2022-12-11T09:56:07.630Z,3.45
2022-12-11T09:58:40.929Z,2.50
2022-12-11T10:01:11.213Z,2.63
2022-12-11T10:03:50.426Z,2.00
2022-12-11T10:06:21.920Z,3.05
2022-12-11T10:08:49.146Z,2.75
2022-12-11T10:11:31.585Z,3.05
2022-12-11T10:14:05.074Z,3.88
2022-12-11T10:16:35.189Z,1.92
2022-12-11T10:19:03.643Z,1.60
2022-12-11T10:21:36.965Z,2.55
2022-12-11T10:24:05.563Z,2.53
2022-12-11T10:26:32.855Z,3.22
2022-12-11T10:29:01.226Z,2.42
2022-12-11T10:31:31.370Z,3.58
2022-12-11T10:34:03.093Z,2.47
2022-12-11T10:36:36.281Z,3.67
2022-12-11T10:39:04.207Z,3.38
2022-12-11T10:41:38.845Z,3.70
2022-12-11T10:44:16.975Z,3.13
2022-12-11T10:46:44.704Z,3.10
2022-12-11T10:49:22.329Z,2.60
2022-12-11T10:51:49.762Z,2.60
2022-12-11T10:54:32.441Z,1.77
2022-12-11T10:57:01.214Z,1.60
2022-12-11T10:59:39.587Z,1.70
2022-12-11T11:02:08.096Z,1.55
2022-12-11T11:04:39.550Z,1.33
2022-12-11T11:07:19.648Z,1.45
2022-12-11T11:09:47.516Z,1.90
2022-12-11T11:12:26.388Z,2.35
2022-12-11T11:15:04.689Z,3.88
2022-12-11T11:17:35.143Z,4.57
2022-12-11T11:20:07.495Z,3.90
2022-12-11T11:22:38.125Z,5.00
2022-12-11T11:25:05.536Z,4.88
2022-12-11T11:27:43.503Z,5.00
2022-12-11T11:30:25.047Z,4.63
2022-12-11T11:32:54.747Z,4.93
2022-12-11T11:35:24.453Z,4.88
2022-12-11T11:38:10.129Z,4.00
2022-12-11T11:40:46.562Z,4.82
2022-12-11T11:43:15.286Z,3.53
2022-12-11T11:45:42.579Z,3.63
2022-12-11T11:48:30.095Z,3.72
2022-12-11T11:50:58.242Z,3.47
2022-12-11T11:53:31.300Z,3.65
2022-12-11T11:56:18.673Z,4.15
2022-12-11T11:58:50.845Z,2.60
2022-12-11T12:01:20.026Z,5.07
2022-12-11T12:03:48.396Z,5.80
2022-12-11T12:06:21.800Z,6.22
2022-12-11T12:08:52.194Z,7.25
2022-12-11T12:11:35.760Z,6.47
2022-12-11T12:14:03.441Z,6.57
2022-12-11T12:16:53.394Z,6.32
2022-12-11T12:19:20.950Z,4.75
2022-12-11T12:21:49.997Z,5.20
2022-12-11T12:24:35.446Z,5.50
2022-12-11T12:27:43.653Z,6.43
2022-12-11T12:30:13.262Z,4.28
2022-12-11T12:32:49.150Z,1.48
2022-12-11T12:35:23.479Z,0.43
2022-12-11T12:38:00.488Z,0.20
2022-12-11T12:40:31.593Z,0.17
2022-12-11T12:43:17.516Z,0.40
2022-12-11T12:45:48.658Z,0.22
2022-12-11T12:48:18.669Z,0.60
2022-12-11T12:50:48.774Z,0.50
2022-12-11T12:53:23.663Z,0.50
2022-12-11T12:55:51.354Z,0.50
2022-12-11T12:58:37.681Z,0.57
2022-12-11T13:01:09.526Z,0.32
2022-12-11T13:03:57.251Z,0.70
2022-12-11T13:06:33.820Z,0.50
2022-12-11T13:09:12.730Z,0.60
2022-12-11T13:11:40.017Z,1.15
2022-12-11T13:14:16.163Z,1.35
2022-12-11T13:16:44.326Z,0.73
2022-12-11T13:19:42.566Z,0.22
2022-12-11T13:22:15.965Z,0.10
2022-12-11T13:24:52.251Z,0.20
2022-12-11T13:27:37.799Z,0.17
2022-12-11T13:30:17.256Z,0.20
2022-12-11T13:32:50.345Z,0.22
2022-12-11T13:35:18.594Z,0.13
2022-12-11T13:37:46.515Z,0.40
2022-12-11T13:40:19.482Z,0.10
2022-12-11T13:42:55.798Z,0.10
2022-12-11T13:45:28.232Z,0.10
2022-12-11T13:47:59.468Z,0.20
2022-12-11T13:50:31.428Z,0.10
2022-12-11T13:53:00.538Z,0.40
2022-12-11T13:55:30.033Z,0.10
2022-12-11T13:57:58.065Z,0.22
2022-12-11T14:00:27.008Z,0.30
2022-12-11T14:02:55.761Z,0.20
2022-12-11T14:05:23.461Z,0.20
2022-12-11T14:07:52.521Z,0.10
2022-12-11T14:10:28.152Z,0.10
2022-12-11T14:13:01.680Z,0.20
2022-12-11T14:15:30.648Z,0.30
2022-12-11T14:17:58.814Z,0.30
2022-12-11T14:20:30.135Z,0.30
2022-12-11T14:23:06.792Z,0.20
2022-12-11T14:25:34.084Z,0.20
2022-12-11T14:28:01.769Z,0.52
2022-12-11T14:30:30.595Z,0.63
2022-12-11T14:32:59.081Z,2.10
2022-12-11T14:35:39.294Z,5.00
2022-12-11T14:38:26.984Z,3.83
2022-12-11T14:40:57.286Z,3.92
2022-12-11T14:43:29.675Z,4.20
2022-12-11T14:46:00.228Z,3.40
2022-12-11T14:48:30.232Z,1.30
2022-12-11T14:51:00.026Z,0.80
2022-12-11T14:53:30.642Z,1.00
2022-12-11T14:56:01.002Z,1.10
2022-12-11T14:58:28.540Z,0.70
2022-12-11T15:00:58.898Z,0.50
2022-12-11T15:03:31.103Z,0.60
2022-12-11T15:05:59.360Z,0.63
2022-12-11T15:08:26.641Z,0.70
2022-12-11T15:11:10.761Z,0.40
2022-12-11T15:13:50.425Z,0.40
2022-12-11T15:16:18.223Z,0.50
2022-12-11T15:18:48.891Z,0.93
2022-12-11T15:21:16.715Z,0.50
2022-12-11T15:23:52.504Z,0.50
2022-12-11T15:26:20.615Z,0.40
2022-12-11T15:28:47.919Z,0.60
2022-12-11T15:31:34.991Z,1.90
2022-12-11T15:34:02.777Z,2.10
2022-12-11T15:36:38.674Z,1.50
2022-12-11T15:39:08.745Z,1.85
2022-12-11T15:41:36.130Z,1.70
2022-12-11T15:44:05.966Z,1.50
2022-12-11T15:46:36.326Z,1.42
2022-12-11T15:49:10.055Z,0.90
2022-12-11T15:51:42.527Z,1.10
2022-12-11T15:54:10.272Z,2.92
2022-12-11T15:56:37.589Z,2.38
2022-12-11T15:59:06.913Z,2.35
2022-12-11T16:01:34.764Z,2.72
2022-12-11T16:04:05.084Z,3.75
2022-12-11T16:06:33.241Z,2.95
2022-12-11T16:09:01.316Z,1.00
2022-12-11T16:11:28.678Z,1.13
2022-12-11T16:13:56.031Z,0.90
2022-12-11T16:16:23.415Z,1.95
2022-12-11T16:18:51.428Z,0.77
2022-12-11T16:21:21.579Z,1.30
2022-12-11T16:23:49.268Z,2.83
2022-12-11T16:26:16.511Z,3.10
2022-12-11T16:28:43.912Z,2.30
2022-12-11T16:31:12.263Z,2.50
2022-12-11T16:33:39.886Z,6.20
2022-12-11T16:36:16.899Z,3.25
2022-12-11T16:38:53.196Z,3.38
2022-12-11T16:41:21.415Z,14.05
2022-12-11T16:43:48.782Z,8.45
2022-12-11T16:46:19.630Z,27.42
2022-12-11T16:48:47.049Z,22.33
2022-12-11T16:51:14.637Z,10.07
2022-12-11T16:53:41.930Z,13.77
2022-12-11T16:56:09.737Z,10.38
2022-12-11T16:58:36.960Z,6.65
2022-12-11T17:01:12.122Z,4.97
2022-12-11T17:03:40.031Z,6.65
2022-12-11T17:06:08.548Z,6.32
2022-12-11T17:08:35.982Z,5.45
2022-12-11T17:11:07.085Z,8.55
2022-12-11T17:13:36.482Z,5.90
2022-12-11T17:16:07.518Z,5.10
2022-12-11T17:18:35.019Z,3.80
2022-12-11T17:21:06.839Z,3.30
2022-12-11T17:23:34.193Z,4.72
2022-12-11T17:26:02.621Z,7.97
2022-12-11T17:28:30.164Z,6.70
2022-12-11T17:30:59.305Z,6.15
2022-12-11T17:33:26.623Z,9.02
2022-12-11T17:35:53.929Z,6.85
2022-12-11T17:38:21.158Z,6.43
2022-12-11T17:40:48.578Z,7.05
2022-12-11T17:43:15.896Z,3.92
2022-12-11T17:45:43.847Z,4.10
2022-12-11T17:48:11.701Z,3.20
2022-12-11T17:50:43.258Z,3.10
2022-12-11T17:53:11.013Z,2.22
2022-12-11T17:55:44.922Z,2.33
2022-12-11T17:58:13.687Z,3.53
2022-12-11T18:00:42.294Z,7.70
2022-12-11T18:03:10.031Z,7.13
2022-12-11T18:05:41.713Z,4.38
2022-12-11T18:08:09.023Z,1.73
2022-12-11T18:10:36.980Z,1.70
2022-12-11T18:13:04.376Z,2.65
2022-12-11T18:15:32.126Z,2.70
2022-12-11T18:17:59.734Z,2.42
2022-12-11T18:20:27.170Z,4.95
2022-12-11T18:22:55.575Z,3.63
2022-12-11T18:25:22.850Z,4.75
2022-12-11T18:27:50.708Z,5.50
2022-12-11T18:30:18.007Z,4.85
2022-12-11T18:32:45.627Z,6.35
2022-12-11T18:35:13.063Z,5.18
2022-12-11T18:37:41.201Z,5.00
2022-12-11T18:40:09.112Z,6.70
2022-12-11T18:42:36.549Z,7.38
2022-12-11T18:45:03.788Z,7.53
2022-12-11T18:47:31.187Z,9.30
2022-12-11T18:50:01.269Z,7.57
2022-12-11T18:52:33.107Z,8.15
2022-12-11T18:55:00.603Z,7.20
2022-12-11T18:57:27.836Z,8.15
2022-12-11T18:59:55.176Z,9.13
2022-12-11T19:02:22.939Z,8.18
2022-12-11T19:04:50.268Z,9.02
2022-12-11T19:07:17.499Z,8.52
2022-12-11T19:09:48.150Z,6.88
2022-12-11T19:12:15.767Z,5.93
2022-12-11T19:14:43.056Z,6.55
2022-12-11T19:17:10.434Z,7.40
2022-12-11T19:19:37.677Z,6.53
2022-12-11T19:22:05.128Z,6.90
2022-12-11T19:24:32.403Z,6.65
2022-12-11T19:26:59.767Z,4.57
2022-12-11T19:29:34.233Z,3.63
2022-12-11T19:32:05.205Z,3.03
2022-12-11T19:34:32.519Z,5.32
2022-12-11T19:36:59.931Z,9.10
2022-12-11T19:39:27.442Z,6.28
2022-12-11T19:41:54.741Z,7.70
2022-12-11T19:44:22.071Z,5.60
2022-12-11T19:46:49.427Z,5.05
2022-12-11T19:49:16.749Z,5.85
2022-12-11T19:51:44.091Z,3.40
2022-12-11T19:54:13.347Z,4.88
2022-12-11T19:56:40.915Z,5.50
2022-12-11T19:59:09.800Z,5.47
2022-12-11T20:01:38.075Z,6.13
2022-12-11T20:04:06.801Z,4.93
2022-12-11T20:06:35.144Z,5.38
2022-12-11T20:09:02.545Z,5.55
2022-12-11T20:11:29.893Z,4.20
2022-12-11T20:13:57.270Z,4.80
2022-12-11T20:16:46.263Z,4.70
2022-12-11T20:19:11.852Z,5.00
2022-12-11T20:21:39.138Z,6.65
2022-12-11T20:24:06.600Z,5.68
2022-12-11T20:26:36.493Z,6.72
2022-12-11T20:29:05.343Z,6.65
2022-12-11T20:31:33.116Z,7.28
2022-12-11T20:34:00.471Z,7.45
2022-12-11T20:36:27.742Z,8.45
2022-12-11T20:38:55.067Z,8.25
2022-12-11T20:41:23.234Z,8.02
2022-12-11T20:43:51.025Z,8.18
2022-12-11T20:46:20.317Z,7.45
2022-12-11T20:48:47.812Z,7.75
2022-12-11T20:51:19.696Z,7.65
2022-12-11T20:53:57.404Z,7.88
2022-12-11T20:56:25.862Z,6.97
2022-12-11T20:58:53.241Z,7.28
2022-12-11T21:01:22.433Z,6.22
2022-12-11T21:03:50.259Z,6.63
2022-12-11T21:06:18.337Z,7.82
2022-12-11T21:08:45.623Z,7.20
2022-12-11T21:11:12.891Z,7.78
2022-12-11T21:13:40.174Z,6.18
2022-12-11T21:16:08.035Z,6.57
2022-12-11T21:18:35.835Z,6.60
2022-12-11T21:21:03.216Z,7.68
2022-12-11T21:23:30.663Z,5.90
2022-12-11T21:25:57.961Z,6.78
2022-12-11T21:28:25.991Z,6.90
2022-12-11T21:30:55.570Z,6.43
2022-12-11T21:33:22.841Z,6.85
2022-12-11T21:35:59.680Z,9.38
2022-12-11T21:38:27.430Z,10.27
2022-12-11T21:40:55.442Z,8.10
2022-12-11T21:43:24.130Z,9.20
2022-12-11T21:46:00.957Z,8.88
2022-12-11T21:48:28.576Z,8.63
2022-12-11T21:50:56.070Z,8.93
2022-12-11T21:53:24.138Z,8.70
2022-12-11T21:55:51.408Z,9.75
2022-12-11T21:58:18.642Z,8.82
2022-12-11T22:00:46.168Z,9.27
2022-12-11T22:03:13.519Z,10.40
2022-12-11T22:05:40.857Z,9.77
2022-12-11T22:08:08.349Z,11.38
2022-12-11T22:10:35.917Z,11.18
2022-12-11T22:13:03.251Z,9.85
2022-12-11T22:15:30.584Z,11.50
2022-12-11T22:17:57.844Z,11.45
2022-12-11T22:20:25.143Z,11.23
2022-12-11T22:22:54.951Z,11.10
2022-12-11T22:25:22.271Z,12.25
2022-12-11T22:27:50.525Z,12.07
2022-12-11T22:30:17.835Z,12.88
2022-12-11T22:32:45.323Z,12.88
2022-12-11T22:35:12.901Z,13.05
2022-12-11T22:37:40.435Z,13.55
2022-12-11T22:40:08.141Z,12.60
2022-12-11T22:42:35.396Z,13.93
2022-12-11T22:45:02.665Z,13.38
2022-12-11T22:47:29.916Z,13.07
2022-12-11T22:49:57.146Z,13.45
2022-12-11T22:52:24.420Z,12.90
2022-12-11T22:54:51.773Z,12.98
2022-12-11T22:57:19.131Z,14.90
2022-12-11T22:59:46.388Z,14.48
2022-12-11T23:02:13.678Z,13.60
2022-12-11T23:04:41.019Z,14.68
2022-12-11T23:07:08.321Z,13.65
2022-12-11T23:09:35.569Z,16.75
2022-12-11T23:12:02.929Z,15.02
2022-12-11T23:14:30.150Z,12.48
2022-12-11T23:16:57.452Z,13.75
2022-12-11T23:19:25.765Z,12.77
2022-12-11T23:21:53.182Z,13.13
2022-12-11T23:24:20.498Z,12.93
2022-12-11T23:26:48.166Z,13.15
2022-12-11T23:29:15.452Z,12.77
2022-12-11T23:31:42.748Z,13.10
2022-12-11T23:34:10.061Z,12.57
2022-12-11T23:36:37.647Z,13.55
2022-12-11T23:39:05.232Z,12.82
2022-12-11T23:41:32.558Z,12.45
2022-12-11T23:43:59.943Z,13.75
2022-12-11T23:46:27.272Z,12.95
2022-12-11T23:48:54.860Z,13.18
2022-12-11T23:51:23.014Z,13.00
2022-12-11T23:53:50.563Z,13.65
2022-12-11T23:56:25.240Z,14.15
2022-12-11T23:58:54.518Z,12.20
